Time;durP1;ratioP1;P1;durP2;ratioP2;P2;SDS_P1;SDS_P2;PMS_P1;PMS_P2;Temp;Humidity;BMP_temperature;BMP_pressure;BME280_temperature;BME280_humidity;BME280_pressure;Samples;Min_cycle;Max_cycle;Signal;HPM_P1;HPM_P2
2022/11/12 00:01:09;;;;;;;;;;;8.50;99.90;;;;;;5056332;28;20273;-75
2022/11/12 00:03:34;;;;;;;;;;;8.50;99.90;;;;;;5054715;28;19909;-77
2022/11/12 00:06:00;;;;;;;;;;;8.50;99.90;;;;;;5054998;28;19955;-76
2022/11/12 00:08:25;;;;;;;;;;;8.50;99.90;;;;;;5054936;28;19913;-76
2022/11/12 00:10:51;;;;;;;;;;;8.40;99.90;;;;;;5055087;28;19908;-76
2022/11/12 00:13:16;;;;;;;;;;;8.40;99.90;;;;;;5055944;28;20294;-75
2022/11/12 00:15:42;;;;;;;;;;;8.30;99.90;;;;;;5056017;28;19999;-77
2022/11/12 00:18:07;;;;;;;;;;;8.30;99.90;;;;;;5056061;28;19951;-77
2022/11/12 00:20:33;;;;;;;;;;;8.30;99.90;;;;;;5055771;28;19909;-78
2022/11/12 00:22:58;;;;;;;;;;;8.30;99.90;;;;;;5054138;28;19909;-77
2022/11/12 00:25:24;;;;;;;;;;;8.30;99.90;;;;;;5055351;28;19909;-76
2022/11/12 00:27:49;;;;;;;;;;;8.20;99.90;;;;;;5055315;28;19945;-75
2022/11/12 00:30:15;;;;;;;;;;;8.20;99.90;;;;;;5055159;28;19920;-76
2022/11/12 00:32:40;;;;;;;;;;;8.10;99.90;;;;;;5055312;28;20371;-75
2022/11/12 00:35:06;;;;;;;;;;;8.10;99.90;;;;;;5055005;28;19948;-76
2022/11/12 00:37:32;;;;;;;;;;;8.10;99.90;;;;;;5055111;28;19918;-75
2022/11/12 00:39:57;;;;;;;;;;;8.10;99.90;;;;;;5055019;28;19913;-76
2022/11/12 00:42:23;;;;;;;;;;;8.10;99.90;;;;;;5054963;28;19909;-76
2022/11/12 00:44:48;;;;;;;;;;;8.00;99.90;;;;;;5054863;28;20393;-76
2022/11/12 00:47:14;;;;;;;;;;;8.00;99.90;;;;;;5053730;28;19958;-76
2022/11/12 00:49:40;;;;;;;;;;;7.90;99.90;;;;;;5054865;28;19909;-76
2022/11/12 00:52:05;;;;;;;;;;;7.90;99.90;;;;;;5054852;28;19959;-75
2022/11/12 00:54:31;;;;;;;;;;;7.90;99.90;;;;;;5054277;28;19909;-76
2022/11/12 00:56:56;;;;;;;;;;;7.90;99.90;;;;;;5054114;28;19913;-76
2022/11/12 00:59:22;;;;;;;;;;;7.90;99.90;;;;;;5054553;28;20290;-76
2022/11/12 01:01:47;;;;;;;;;;;7.90;99.90;;;;;;5054653;28;19909;-75
2022/11/12 01:04:12;;;;;;;;;;;7.90;99.90;;;;;;5053228;28;20003;-76
2022/11/12 01:06:39;;;;;;;;;;;7.80;99.90;;;;;;5054556;28;19908;-76
2022/11/12 01:09:05;;;;;;;;;;;7.80;99.90;;;;;;5054462;28;19962;-76
2022/11/12 01:11:30;;;;;;;;;;;7.80;99.90;;;;;;5054616;28;20290;-76
2022/11/12 01:13:57;;;;;;;;;;;7.80;99.90;;;;;;5054319;28;19952;-76
2022/11/12 01:16:27;;;;;;;;;;;7.70;99.90;;;;;;5054446;28;19959;-77
2022/11/12 01:18:54;;;;;;;;;;;7.70;99.90;;;;;;5053457;28;19913;-77
2022/11/12 01:21:20;;;;;;;;;;;7.70;99.90;;;;;;5055344;28;19909;-79
2022/11/12 01:23:45;;;;;;;;;;;7.70;99.90;;;;;;5054767;28;20286;-78
2022/11/12 01:26:13;;;;;;;;;;;7.70;99.90;;;;;;5053737;28;19916;-77
2022/11/12 01:28:39;;;;;;;;;;;7.70;99.90;;;;;;5054399;28;19913;-76
2022/11/12 01:31:09;;;;;;;;;;;7.60;99.90;;;;;;5054235;28;19927;-76
2022/11/12 01:33:34;;;;;;;;;;;7.60;99.90;;;;;;5052562;28;20365;-75
2022/11/12 01:36:00;;;;;;;;;;;7.60;99.90;;;;;;5053959;28;19915;-76
2022/11/12 01:38:25;;;;;;;;;;;7.60;99.90;;;;;;5052652;28;19962;-76
2022/11/12 01:40:50;;;;;;;;;;;7.50;99.90;;;;;;5052703;28;19931;-75
2022/11/12 01:43:16;;;;;;;;;;;7.50;99.90;;;;;;5053767;28;19920;-76
2022/11/12 01:45:44;;;;;;;;;;;7.50;99.90;;;;;;5053955;28;19909;-76
2022/11/12 01:48:18;;;;;;;;;;;7.40;99.90;;;;;;5053764;28;19909;-76
2022/11/12 01:50:43;;;;;;;;;;;7.40;99.90;;;;;;5053784;28;20187;-75
2022/11/12 01:53:10;;;;;;;;;;;7.40;99.90;;;;;;5053680;28;19947;-75
2022/11/12 01:55:36;;;;;;;;;;;7.40;99.90;;;;;;5053592;28;19909;-76
2022/11/12 01:58:10;;;;;;;;;;;7.40;99.90;;;;;;5053633;28;19916;-76
2022/11/12 02:00:36;;;;;;;;;;;7.30;99.90;;;;;;5052620;28;19913;-76
2022/11/12 02:03:03;;;;;;;;;;;7.30;99.90;;;;;;5052554;28;19971;-75
2022/11/12 02:05:30;;;;;;;;;;;7.30;99.90;;;;;;5052590;28;19908;-77
2022/11/12 02:07:56;;;;;;;;;;;7.30;99.90;;;;;;5053643;28;20263;-78
2022/11/12 02:10:22;;;;;;;;;;;7.30;99.90;;;;;;5053378;28;19909;-76
2022/11/12 02:15:32;;;;;;;;;;;7.20;99.90;;;;;;5054038;28;20400;-76
2022/11/12 02:17:58;;;;;;;;;;;7.20;99.90;;;;;;5053342;28;20007;-75
2022/11/12 02:20:23;;;;;;;;;;;7.20;99.90;;;;;;5053055;28;19973;-77
2022/11/12 02:22:49;;;;;;;;;;;7.20;99.90;;;;;;5053485;28;19913;-77
2022/11/12 02:25:19;;;;;;;;;;;7.20;99.90;;;;;;5052090;28;19916;-76
2022/11/12 02:27:50;;;;;;;;;;;7.20;99.90;;;;;;5053256;28;19948;-77
2022/11/12 02:30:16;;;;;;;;;;;7.20;99.90;;;;;;5053182;28;19916;-76
2022/11/12 02:32:42;;;;;;;;;;;7.30;99.90;;;;;;5052980;28;19909;-75
2022/11/12 02:35:07;;;;;;;;;;;7.20;99.90;;;;;;5052691;28;19909;-76
2022/11/12 02:37:32;;;;;;;;;;;7.30;99.90;;;;;;5052916;28;19909;-76
2022/11/12 02:39:58;;;;;;;;;;;7.30;99.90;;;;;;5052693;28;19912;-75
2022/11/12 02:42:24;;;;;;;;;;;7.30;99.90;;;;;;5052854;28;19971;-75
2022/11/12 02:44:49;;;;;;;;;;;7.30;99.90;;;;;;5052901;28;20003;-77
2022/11/12 02:47:15;;;;;;;;;;;7.30;99.90;;;;;;5054043;28;19948;-76
2022/11/12 02:49:40;;;;;;;;;;;7.30;99.90;;;;;;5054818;28;19942;-78
2022/11/12 02:52:06;;;;;;;;;;;7.30;99.90;;;;;;5053712;28;19913;-77
2022/11/12 02:54:31;;;;;;;;;;;7.40;99.90;;;;;;5052403;28;20006;-76
2022/11/12 02:56:56;;;;;;;;;;;7.30;99.90;;;;;;5053310;28;19919;-78
2022/11/12 02:59:22;;;;;;;;;;;7.40;99.90;;;;;;5053194;28;20318;-78
2022/11/12 03:01:47;;;;;;;;;;;7.40;99.90;;;;;;5054574;28;19913;-77
2022/11/12 03:04:13;;;;;;;;;;;7.50;99.90;;;;;;5052916;28;19909;-78
2022/11/12 03:06:38;;;;;;;;;;;7.50;99.90;;;;;;5054575;28;19935;-79
2022/11/12 03:09:04;;;;;;;;;;;7.50;99.90;;;;;;5053041;28;20281;-78
2022/11/12 03:11:29;;;;;;;;;;;7.50;99.90;;;;;;5054238;28;20023;-78
2022/11/12 03:13:55;;;;;;;;;;;7.50;99.90;;;;;;5054252;28;20324;-78
2022/11/12 03:16:20;;;;;;;;;;;7.50;99.90;;;;;;5054203;28;19999;-78
2022/11/12 03:18:45;;;;;;;;;;;7.60;99.90;;;;;;5055271;28;19917;-78
2022/11/12 03:21:11;;;;;;;;;;;7.70;99.90;;;;;;5057727;28;19962;-78
2022/11/12 03:23:37;;;;;;;;;;;7.70;99.90;;;;;;5057780;28;20362;-78
2022/11/12 03:26:03;;;;;;;;;;;7.70;99.90;;;;;;5058535;28;19908;-78
2022/11/12 03:28:29;;;;;;;;;;;7.70;99.90;;;;;;5058004;28;19909;-78
2022/11/12 03:30:58;;;;;;;;;;;7.70;99.90;;;;;;5058111;28;19920;-77
2022/11/12 03:33:24;;;;;;;;;;;7.60;99.90;;;;;;5056225;28;19909;-79
2022/11/12 03:35:49;;;;;;;;;;;7.60;99.90;;;;;;5057964;28;19913;-78
2022/11/12 03:38:15;;;;;;;;;;;7.70;99.90;;;;;;5057776;28;19909;-78
2022/11/12 03:40:40;;;;;;;;;;;7.60;99.90;;;;;;5058150;28;19908;-77
2022/11/12 03:43:06;;;;;;;;;;;7.60;99.90;;;;;;5057512;28;19917;-78
2022/11/12 03:45:31;;;;;;;;;;;7.60;99.90;;;;;;5056803;28;20007;-79
2022/11/12 03:47:57;;;;;;;;;;;7.50;99.90;;;;;;5056317;28;19909;-76
2022/11/12 03:50:24;;;;;;;;;;;7.50;99.90;;;;;;5056436;28;20286;-77
2022/11/12 03:52:51;;;;;;;;;;;7.50;99.90;;;;;;5056019;28;20374;-78
2022/11/12 03:55:18;;;;;;;;;;;7.50;99.90;;;;;;5056144;28;20002;-77
2022/11/12 03:57:43;;;;;;;;;;;7.50;99.90;;;;;;5056193;28;19916;-76
2022/11/12 04:00:10;;;;;;;;;;;7.40;99.90;;;;;;5056076;28;19913;-76
2022/11/12 04:02:36;;;;;;;;;;;7.50;99.90;;;;;;5055719;28;20285;-77
2022/11/12 04:10:32;;;;;;;;;;;7.40;99.90;;;;;;5056310;28;19932;-76
2022/11/12 04:15:41;;;;;;;;;;;7.40;99.90;;;;;;5056162;28;20023;-78
2022/11/12 04:23:35;;;;;;;;;;;7.40;99.90;;;;;;5055404;28;19955;-77
2022/11/12 04:31:29;;;;;;;;;;;7.40;99.90;;;;;;5055423;28;19970;-76
2022/11/12 04:34:27;;;;;;;;;;;7.40;99.90;;;;;;5055091;28;19909;-76
2022/11/12 04:36:40;;;;;;;;;;;7.40;99.90;;;;;;5055478;28;19909;-77
2022/11/12 04:39:05;;;;;;;;;;;7.40;99.90;;;;;;5055424;28;19916;-76
2022/11/12 04:46:59;;;;;;;;;;;7.40;99.90;;;;;;5055287;28;19955;-78
2022/11/12 04:49:25;;;;;;;;;;;7.40;99.90;;;;;;5055199;28;19913;-76
2022/11/12 04:52:05;;;;;;;;;;;7.40;99.90;;;;;;5055281;28;20007;-77
2022/11/12 04:54:31;;;;;;;;;;;7.40;99.90;;;;;;5055017;28;19987;-76
2022/11/12 04:56:57;;;;;;;;;;;7.40;99.90;;;;;;5055156;28;20338;-77
2022/11/12 04:59:22;;;;;;;;;;;7.40;99.90;;;;;;5054995;28;20007;-78
2022/11/12 05:01:49;;;;;;;;;;;7.40;99.90;;;;;;5055162;28;20325;-77
2022/11/12 05:04:14;;;;;;;;;;;7.40;99.90;;;;;;5053483;28;20330;-78
2022/11/12 05:06:52;;;;;;;;;;;7.30;99.90;;;;;;5054938;28;19940;-77
2022/11/12 05:09:18;;;;;;;;;;;7.30;99.90;;;;;;5053455;28;19913;-77
2022/11/12 05:11:43;;;;;;;;;;;7.20;99.90;;;;;;5055131;28;19913;-77
2022/11/12 05:14:09;;;;;;;;;;;7.20;99.90;;;;;;5054579;28;19916;-78
2022/11/12 05:16:34;;;;;;;;;;;7.20;99.90;;;;;;5054682;28;20599;-78
2022/11/12 05:19:00;;;;;;;;;;;7.20;99.90;;;;;;5054787;28;19912;-77
2022/11/12 05:24:10;;;;;;;;;;;7.10;99.90;;;;;;5054340;28;19916;-77
2022/11/12 05:26:35;;;;;;;;;;;7.10;99.90;;;;;;5054663;28;19909;-77
2022/11/12 05:29:01;;;;;;;;;;;7.10;99.90;;;;;;5094657;22;19911;-77
2022/11/12 05:31:27;;;;;;;;;;;7.10;99.90;;;;;;5055907;28;20015;-78
2022/11/12 05:33:52;;;;;;;;;;;7.10;99.90;;;;;;5055085;28;19909;-78
2022/11/12 05:36:17;;;;;;;;;;;7.10;99.90;;;;;;5055560;28;19916;-77
2022/11/12 05:38:43;;;;;;;;;;;7.20;99.90;;;;;;5055204;28;19912;-77
2022/11/12 05:41:08;;;;;;;;;;;7.20;99.90;;;;;;5054784;28;19909;-78
2022/11/12 05:43:34;;;;;;;;;;;7.10;99.90;;;;;;5055323;28;19952;-78
2022/11/12 05:45:59;;;;;;;;;;;7.20;99.90;;;;;;5054334;28;19958;-77
2022/11/12 05:48:25;;;;;;;;;;;7.20;99.90;;;;;;5055305;28;19909;-78
2022/11/12 05:50:51;;;;;;;;;;;7.20;99.90;;;;;;5054046;28;20262;-76
2022/11/12 05:53:16;;;;;;;;;;;7.20;99.90;;;;;;5054948;28;20021;-78
2022/11/12 05:55:42;;;;;;;;;;;7.20;99.90;;;;;;5055273;28;19952;-77
2022/11/12 05:58:08;;;;;;;;;;;7.20;99.90;;;;;;5055153;28;19909;-77
2022/11/12 06:00:37;;;;;;;;;;;7.10;99.90;;;;;;5054765;28;19936;-77
2022/11/12 06:03:07;;;;;;;;;;;7.20;99.90;;;;;;5054576;28;19908;-77
2022/11/12 06:05:33;;;;;;;;;;;7.20;99.90;;;;;;5055009;28;19908;-77
2022/11/12 06:07:59;;;;;;;;;;;7.20;99.90;;;;;;5054993;28;20492;-77
2022/11/12 06:10:24;;;;;;;;;;;7.20;99.90;;;;;;5053789;28;19915;-78
2022/11/12 06:12:50;;;;;;;;;;;7.20;99.90;;;;;;5054497;28;19955;-78
2022/11/12 06:15:16;;;;;;;;;;;7.20;99.90;;;;;;5054715;28;20350;-77
2022/11/12 06:17:41;;;;;;;;;;;7.20;99.90;;;;;;5055031;28;19915;-77
2022/11/12 06:20:07;;;;;;;;;;;7.20;99.90;;;;;;5054801;28;19913;-76
2022/11/12 06:22:33;;;;;;;;;;;7.20;99.90;;;;;;5054621;28;19909;-77
2022/11/12 06:24:58;;;;;;;;;;;7.20;99.90;;;;;;5054801;28;20000;-78
2022/11/12 06:27:24;;;;;;;;;;;7.20;99.90;;;;;;5053542;28;20386;-77
2022/11/12 06:29:49;;;;;;;;;;;7.20;99.90;;;;;;5054278;28;20008;-78
2022/11/12 06:32:15;;;;;;;;;;;7.20;99.90;;;;;;5054800;28;20022;-77
2022/11/12 06:34:40;;;;;;;;;;;7.20;99.90;;;;;;5054309;28;19908;-77
2022/11/12 06:37:05;;;;;;;;;;;7.20;99.90;;;;;;5053088;28;19913;-77
2022/11/12 06:39:31;;;;;;;;;;;7.20;99.90;;;;;;5054213;28;19920;-77
2022/11/12 06:41:56;;;;;;;;;;;7.20;99.90;;;;;;5054469;28;19915;-78
2022/11/12 06:44:22;;;;;;;;;;;7.20;99.90;;;;;;5053792;28;20370;-78
2022/11/12 06:46:47;;;;;;;;;;;7.20;99.90;;;;;;5054331;28;20000;-77
2022/11/12 06:49:13;;;;;;;;;;;7.20;99.90;;;;;;5053908;28;19935;-77
2022/11/12 06:51:38;;;;;;;;;;;7.10;99.90;;;;;;5054658;28;19912;-77
2022/11/12 06:54:04;;;;;;;;;;;7.20;99.90;;;;;;5053204;28;19949;-78
2022/11/12 06:56:30;;;;;;;;;;;7.20;99.90;;;;;;5054322;28;19978;-77
2022/11/12 06:58:55;;;;;;;;;;;7.20;99.90;;;;;;5054186;28;19917;-78
2022/11/12 07:01:22;;;;;;;;;;;7.20;99.90;;;;;;5054390;28;19932;-78
2022/11/12 07:03:50;;;;;;;;;;;7.20;99.90;;;;;;5052409;28;20282;-77
2022/11/12 07:06:19;;;;;;;;;;;7.20;99.90;;;;;;5054088;28;19916;-78
2022/11/12 07:08:48;;;;;;;;;;;7.30;99.90;;;;;;5052698;28;19944;-78
2022/11/12 07:11:14;;;;;;;;;;;7.20;99.90;;;;;;5056327;28;19915;-78
2022/11/12 07:13:40;;;;;;;;;;;7.30;99.90;;;;;;5055490;28;20349;-78
2022/11/12 07:16:06;;;;;;;;;;;7.30;99.90;;;;;;5056645;28;19912;-78
2022/11/12 07:18:32;;;;;;;;;;;7.30;99.90;;;;;;5056122;28;20282;-77
2022/11/12 07:21:08;;;;;;;;;;;7.30;99.90;;;;;;5056279;28;20417;-78
2022/11/12 07:23:35;;;;;;;;;;;7.30;99.90;;;;;;5054305;28;20288;-77
2022/11/12 07:26:02;;;;;;;;;;;7.40;99.90;;;;;;5055812;28;19915;-78
2022/11/12 07:28:28;;;;;;;;;;;7.40;99.90;;;;;;5055745;28;19909;-78
2022/11/12 07:30:57;;;;;;;;;;;7.40;99.90;;;;;;5055819;28;19996;-78
2022/11/12 07:33:23;;;;;;;;;;;7.40;99.90;;;;;;5056214;28;20378;-78
2022/11/12 07:35:54;;;;;;;;;;;7.50;99.90;;;;;;5055956;28;19916;-78
2022/11/12 07:38:20;;;;;;;;;;;7.50;99.90;;;;;;5056372;28;19932;-78
2022/11/12 07:40:45;;;;;;;;;;;7.50;99.90;;;;;;5054253;28;19917;-77
2022/11/12 07:43:11;;;;;;;;;;;7.60;99.90;;;;;;5055528;28;19909;-77
2022/11/12 07:45:36;;;;;;;;;;;7.60;99.90;;;;;;5056101;28;19909;-76
2022/11/12 07:48:02;;;;;;;;;;;7.70;99.90;;;;;;5054615;28;20320;-76
2022/11/12 07:50:27;;;;;;;;;;;7.70;99.90;;;;;;5055564;28;19912;-78
2022/11/12 07:52:52;;;;;;;;;;;7.70;99.90;;;;;;5055608;28;20390;-78
2022/11/12 07:55:18;;;;;;;;;;;7.80;99.90;;;;;;5056178;28;19909;-79
2022/11/12 07:57:43;;;;;;;;;;;7.80;99.90;;;;;;5055423;28;20057;-78
2022/11/12 08:00:11;;;;;;;;;;;7.90;99.90;;;;;;5055597;28;19914;-76
2022/11/12 08:02:36;;;;;;;;;;;8.00;99.90;;;;;;5055559;28;19908;-78
2022/11/12 08:05:01;;;;;;;;;;;8.10;99.90;;;;;;5057222;28;19931;-78
2022/11/12 08:07:27;;;;;;;;;;;8.10;99.90;;;;;;5059636;28;19916;-76
2022/11/12 08:09:53;;;;;;;;;;;8.20;99.90;;;;;;5059250;28;19935;-76
2022/11/12 08:12:18;;;;;;;;;;;8.30;99.90;;;;;;5057924;28;19931;-79
2022/11/12 08:14:44;;;;;;;;;;;8.40;99.90;;;;;;5059502;28;20011;-77
2022/11/12 08:17:10;;;;;;;;;;;8.50;99.90;;;;;;5059428;28;19999;-76
2022/11/12 08:19:35;;;;;;;;;;;8.50;99.90;;;;;;5059159;28;19919;-77
2022/11/12 08:22:01;;;;;;;;;;;8.60;99.90;;;;;;5057778;28;19909;-78
2022/11/12 08:24:26;;;;;;;;;;;8.70;99.90;;;;;;5059030;28;20003;-78
2022/11/12 08:26:51;;;;;;;;;;;8.80;99.90;;;;;;5058875;28;19968;-78
2022/11/12 08:29:17;;;;;;;;;;;8.90;99.90;;;;;;5059058;28;19917;-77
2022/11/12 08:31:44;;;;;;;;;;;9.00;99.90;;;;;;5059273;28;19979;-79
2022/11/12 08:34:13;;;;;;;;;;;9.10;99.90;;;;;;5059087;28;19916;-78
2022/11/12 08:36:39;;;;;;;;;;;9.20;99.90;;;;;;5058583;28;19909;-78
2022/11/12 08:39:05;;;;;;;;;;;9.30;99.90;;;;;;5058598;28;19944;-77
2022/11/12 08:41:31;;;;;;;;;;;9.30;99.90;;;;;;5059145;28;19909;-77
2022/11/12 08:43:57;;;;;;;;;;;9.30;99.90;;;;;;5058164;28;19999;-78
2022/11/12 08:46:22;;;;;;;;;;;9.40;99.90;;;;;;5057424;28;19999;-77
2022/11/12 08:48:47;;;;;;;;;;;9.50;99.90;;;;;;5058578;28;19909;-79
2022/11/12 08:51:13;;;;;;;;;;;9.60;99.90;;;;;;5057955;28;19920;-78
2022/11/12 08:53:39;;;;;;;;;;;9.60;99.90;;;;;;5058215;28;19940;-79
2022/11/12 08:56:04;;;;;;;;;;;9.70;99.90;;;;;;5058555;28;20018;-78
2022/11/12 08:58:30;;;;;;;;;;;9.70;99.90;;;;;;5058544;28;20309;-78
2022/11/12 09:00:56;;;;;;;;;;;9.70;99.90;;;;;;5058393;28;19913;-78
2022/11/12 09:03:23;;;;;;;;;;;9.70;99.90;;;;;;5057960;28;19909;-77
2022/11/12 09:05:49;;;;;;;;;;;9.80;99.90;;;;;;5058216;28;20289;-78
2022/11/12 09:08:16;;;;;;;;;;;9.90;99.90;;;;;;5058375;28;19913;-78
2022/11/12 09:10:41;;;;;;;;;;;10.00;99.90;;;;;;5057668;28;19915;-78
2022/11/12 09:13:07;;;;;;;;;;;10.10;99.90;;;;;;5057624;28;20011;-77
2022/11/12 09:15:32;;;;;;;;;;;10.10;99.90;;;;;;5057886;28;19909;-79
2022/11/12 09:17:58;;;;;;;;;;;10.20;99.90;;;;;;5057827;28;20000;-78
2022/11/12 09:20:24;;;;;;;;;;;10.30;99.90;;;;;;5057870;28;19913;-79
2022/11/12 09:22:50;;;;;;;;;;;10.40;99.90;;;;;;5057672;28;19923;-79
2022/11/12 09:25:16;;;;;;;;;;;10.50;99.90;;;;;;5057823;28;20005;-78
2022/11/12 09:27:42;;;;;;;;;;;10.60;99.90;;;;;;5058023;28;19964;-77
2022/11/12 09:30:07;;;;;;;;;;;10.70;99.90;;;;;;5057519;28;19917;-77
2022/11/12 09:32:33;;;;;;;;;;;10.80;99.90;;;;;;5057619;28;19909;-76
2022/11/12 09:34:58;;;;;;;;;;;10.70;99.90;;;;;;5057850;28;20444;-79
2022/11/12 09:37:24;;;;;;;;;;;10.80;99.90;;;;;;5057666;28;20000;-78
2022/11/12 09:39:49;;;;;;;;;;;10.90;99.90;;;;;;5057000;28;19919;-78
2022/11/12 09:42:17;;;;;;;;;;;11.00;99.90;;;;;;5057463;28;20140;-78
2022/11/12 09:44:45;;;;;;;;;;;11.10;99.90;;;;;;5057401;28;19966;-78
2022/11/12 09:47:19;;;;;;;;;;;11.20;99.90;;;;;;5057940;28;20427;-78
2022/11/12 09:50:08;;;;;;;;;;;11.40;99.90;;;;;;5056224;28;20516;-78
2022/11/12 09:52:34;;;;;;;;;;;11.50;99.90;;;;;;5054921;28;19909;-78
2022/11/12 09:55:26;;;;;;;;;;;11.50;99.90;;;;;;5057983;28;19919;-79
2022/11/12 09:57:51;;;;;;;;;;;11.60;99.90;;;;;;5056269;28;20285;-79
2022/11/12 10:00:18;;;;;;;;;;;11.80;99.90;;;;;;5057235;28;19912;-78
2022/11/12 10:02:46;;;;;;;;;;;11.90;99.90;;;;;;5057633;28;19917;-78
2022/11/12 10:05:21;;;;;;;;;;;12.00;99.90;;;;;;5057235;28;19909;-78
2022/11/12 10:07:54;;;;;;;;;;;12.10;99.90;;;;;;5055774;28;19948;-78
2022/11/12 10:10:20;;;;;;;;;;;12.20;99.90;;;;;;5057260;28;20394;-77
2022/11/12 10:12:54;;;;;;;;;;;12.30;99.90;;;;;;5057102;28;19930;-78
2022/11/12 10:18:10;;;;;;;;;;;12.60;99.90;;;;;;5053591;28;20373;-80
2022/11/12 10:20:47;;;;;;;;;;;12.80;99.90;;;;;;5054206;28;19917;-78
2022/11/12 10:23:21;;;;;;;;;;;12.90;99.90;;;;;;5074035;28;19908;-80
2022/11/12 10:25:48;;;;;;;;;;;13.00;99.90;;;;;;5075055;28;19912;-79
2022/11/12 10:28:22;;;;;;;;;;;13.00;99.90;;;;;;5075371;28;20374;-80
2022/11/12 10:30:48;;;;;;;;;;;13.30;99.90;;;;;;5074453;28;19970;-80
2022/11/12 10:33:14;;;;;;;;;;;13.50;99.90;;;;;;5058623;28;19932;-78
2022/11/12 10:35:39;;;;;;;;;;;13.70;99.90;;;;;;5034754;28;19971;-78
2022/11/12 10:38:10;;;;;;;;;;;13.80;99.90;;;;;;5034141;28;19963;-78
2022/11/12 10:40:39;;;;;;;;;;;14.00;99.90;;;;;;5034182;28;19917;-78
2022/11/12 10:43:18;;;;;;;;;;;14.00;99.90;;;;;;5033964;28;19909;-79
2022/11/12 10:45:44;;;;;;;;;;;14.10;99.90;;;;;;5033132;28;19909;-79
2022/11/12 10:48:19;;;;;;;;;;;14.10;99.90;;;;;;5034395;28;19909;-78
2022/11/12 10:50:44;;;;;;;;;;;14.30;99.90;;;;;;5035418;28;19910;-79
2022/11/12 10:53:11;;;;;;;;;;;14.50;99.90;;;;;;5033946;28;19909;-79
2022/11/12 10:55:52;;;;;;;;;;;14.70;99.90;;;;;;5034258;28;19909;-78
2022/11/12 10:58:19;;;;;;;;;;;15.00;99.90;;;;;;5034501;28;20370;-79
2022/11/12 11:01:06;;;;;;;;;;;15.80;99.90;;;;;;5033722;28;19976;-78
2022/11/12 11:03:35;;;;;;;;;;;16.50;99.90;;;;;;5032542;28;20000;-80
2022/11/12 11:06:01;;;;;;;;;;;16.80;99.90;;;;;;5048565;28;19924;-80
2022/11/12 11:08:45;;;;;;;;;;;16.90;99.90;;;;;;5038437;28;19909;-79
2022/11/12 11:11:17;;;;;;;;;;;16.90;99.90;;;;;;5038009;28;19909;-79
2022/11/12 11:13:43;;;;;;;;;;;16.90;99.90;;;;;;5037142;28;19909;-78
2022/11/12 11:16:13;;;;;;;;;;;16.80;99.90;;;;;;5038246;28;19909;-79
2022/11/12 11:18:40;;;;;;;;;;;16.70;99.90;;;;;;5044300;28;19909;-79
2022/11/12 11:21:11;;;;;;;;;;;16.70;99.90;;;;;;5046861;28;19996;-79
2022/11/12 11:23:46;;;;;;;;;;;16.90;99.90;;;;;;5046814;28;19936;-79
2022/11/12 11:26:17;;;;;;;;;;;17.90;99.90;;;;;;5044098;28;19909;-79
2022/11/12 11:28:47;;;;;;;;;;;19.20;99.90;;;;;;5039037;28;19909;-79
2022/11/12 11:31:22;;;;;;;;;;;20.30;99.90;;;;;;5037661;28;19924;-78
2022/11/12 11:33:49;;;;;;;;;;;20.80;99.90;;;;;;5037738;28;19909;-79
2022/11/12 11:36:27;;;;;;;;;;;21.50;98.90;;;;;;5037706;28;19913;-78
2022/11/12 11:38:52;;;;;;;;;;;22.40;97.20;;;;;;5037681;28;19920;-78
2022/11/12 11:41:18;;;;;;;;;;;23.00;94.20;;;;;;5043533;28;19909;-78
2022/11/12 11:43:53;;;;;;;;;;;24.10;93.10;;;;;;5045333;28;19916;-78
2022/11/12 11:46:25;;;;;;;;;;;25.00;85.80;;;;;;5042114;28;19963;-77
2022/11/12 11:49:09;;;;;;;;;;;25.10;80.20;;;;;;5036037;28;19925;-77
2022/11/12 11:51:49;;;;;;;;;;;25.00;78.20;;;;;;5036276;28;19909;-77
2022/11/12 11:54:33;;;;;;;;;;;25.20;77.20;;;;;;5035768;28;19909;-77
2022/11/12 11:57:00;;;;;;;;;;;25.40;75.80;;;;;;5035960;28;19909;-76
2022/11/12 11:59:54;;;;;;;;;;;24.80;73.10;;;;;;5035754;28;20003;-76
2022/11/12 12:02:38;;;;;;;;;;;23.70;73.50;;;;;;5044370;28;20012;-78
2022/11/12 12:05:22;;;;;;;;;;;23.20;77.40;;;;;;5043632;28;19909;-77
2022/11/12 12:07:47;;;;;;;;;;;23.20;78.30;;;;;;5042254;28;19917;-77
2022/11/12 12:10:23;;;;;;;;;;;23.00;78.20;;;;;;5043108;28;19996;-77
2022/11/12 12:13:00;;;;;;;;;;;23.40;78.70;;;;;;5041951;28;19932;-77
2022/11/12 12:15:31;;;;;;;;;;;23.50;78.40;;;;;;5042542;28;20097;-77
2022/11/12 12:18:02;;;;;;;;;;;23.50;78.10;;;;;;5042413;28;19956;-77
2022/11/12 12:20:40;;;;;;;;;;;23.00;78.30;;;;;;5042687;28;19913;-77
2022/11/12 12:23:12;;;;;;;;;;;23.10;79.70;;;;;;5042005;28;19909;-77
2022/11/12 12:25:39;;;;;;;;;;;22.70;79.60;;;;;;5043416;28;19909;-77
2022/11/12 12:28:11;;;;;;;;;;;22.10;80.80;;;;;;5042858;28;19909;-77
2022/11/12 12:30:40;;;;;;;;;;;21.60;83.70;;;;;;5042339;28;19924;-77
2022/11/12 12:33:25;;;;;;;;;;;21.40;86.00;;;;;;5042423;28;19913;-77
2022/11/12 12:35:57;;;;;;;;;;;21.30;87.10;;;;;;5043258;28;20363;-77
2022/11/12 12:38:41;;;;;;;;;;;22.00;88.90;;;;;;5043777;28;19909;-77
2022/11/12 12:41:13;;;;;;;;;;;22.50;85.50;;;;;;5043077;28;20290;-78
2022/11/12 12:43:51;;;;;;;;;;;23.40;84.30;;;;;;5044295;28;19909;-78
2022/11/12 12:46:19;;;;;;;;;;;24.40;82.10;;;;;;5044499;28;19933;-77
2022/11/12 12:48:45;;;;;;;;;;;24.70;79.00;;;;;;5044345;28;19909;-77
2022/11/12 12:51:10;;;;;;;;;;;25.20;78.60;;;;;;5041981;28;19919;-77
2022/11/12 12:53:36;;;;;;;;;;;25.50;76.80;;;;;;5044181;28;19917;-77
2022/11/12 12:56:05;;;;;;;;;;;25.60;74.30;;;;;;5044812;28;19909;-78
2022/11/12 12:58:40;;;;;;;;;;;25.40;72.70;;;;;;5043118;28;19948;-77
2022/11/12 13:01:24;;;;;;;;;;;25.50;73.40;;;;;;5044076;28;20433;-77
2022/11/12 13:04:02;;;;;;;;;;;25.30;72.40;;;;;;5043477;28;19910;-77
2022/11/12 13:06:32;;;;;;;;;;;24.30;74.30;;;;;;5042799;28;19910;-77
2022/11/12 13:09:16;;;;;;;;;;;23.70;75.80;;;;;;5044263;28;19913;-77
2022/11/12 13:14:35;;;;;;;;;;;23.80;79.20;;;;;;5043328;28;19921;-77
2022/11/12 13:17:02;;;;;;;;;;;23.60;77.80;;;;;;5044135;28;19909;-78
2022/11/12 13:19:29;;;;;;;;;;;22.90;78.30;;;;;;5062244;28;19968;-78
2022/11/12 13:22:22;;;;;;;;;;;22.30;80.20;;;;;;5063950;28;19939;-77
2022/11/12 13:25:03;;;;;;;;;;;21.70;82.80;;;;;;5062091;28;19909;-77
2022/11/12 13:27:37;;;;;;;;;;;21.20;86.50;;;;;;5060536;28;20301;-77
2022/11/12 13:30:06;;;;;;;;;;;20.70;88.20;;;;;;5058050;28;19921;-79
2022/11/12 13:32:33;;;;;;;;;;;20.30;90.70;;;;;;5057410;28;20011;-78
2022/11/12 13:35:17;;;;;;;;;;;19.90;92.60;;;;;;5056237;28;19909;-79
2022/11/12 13:38:03;;;;;;;;;;;19.50;94.20;;;;;;5056687;28;19916;-78
2022/11/12 13:40:28;;;;;;;;;;;19.10;96.00;;;;;;5055413;28;19909;-79
2022/11/12 13:43:12;;;;;;;;;;;18.90;98.90;;;;;;5055852;28;20293;-78
2022/11/12 13:45:45;;;;;;;;;;;18.60;99.90;;;;;;5055247;28;20286;-79
2022/11/12 13:48:22;;;;;;;;;;;18.30;99.90;;;;;;5056430;28;20007;-79
2022/11/12 13:50:49;;;;;;;;;;;18.20;99.90;;;;;;5056327;28;19963;-78
2022/11/12 13:53:18;;;;;;;;;;;18.10;99.90;;;;;;5057297;28;20382;-77
2022/11/12 13:55:47;;;;;;;;;;;18.00;99.90;;;;;;5041317;28;19968;-79
2022/11/12 13:58:39;;;;;;;;;;;18.00;99.90;;;;;;5050827;28;19909;-80
2022/11/12 14:01:05;;;;;;;;;;;17.90;99.90;;;;;;5054153;28;19920;-80
2022/11/12 14:03:50;;;;;;;;;;;17.80;99.90;;;;;;5055225;28;19959;-82
2022/11/12 14:06:17;;;;;;;;;;;17.60;99.90;;;;;;5055660;28;19912;-79
2022/11/12 14:08:49;;;;;;;;;;;17.60;99.90;;;;;;5056661;28;19913;-80
2022/11/12 14:11:44;;;;;;;;;;;17.60;99.90;;;;;;5043779;28;20606;-84
2022/11/12 14:14:18;;;;;;;;;;;17.60;99.90;;;;;;5043318;28;19916;-83
2022/11/12 14:16:56;;;;;;;;;;;17.50;99.90;;;;;;5047212;28;20003;-84
2022/11/12 14:19:24;;;;;;;;;;;17.50;99.90;;;;;;5034177;28;19909;-84
2022/11/12 14:21:57;;;;;;;;;;;17.50;99.90;;;;;;5034565;28;19916;-83
2022/11/12 14:24:22;;;;;;;;;;;17.50;99.90;;;;;;5034504;28;20389;-85
2022/11/12 14:26:48;;;;;;;;;;;17.50;99.90;;;;;;5034761;28;19909;-84
2022/11/12 14:29:17;;;;;;;;;;;17.50;99.90;;;;;;5035704;28;19923;-83
2022/11/12 14:31:42;;;;;;;;;;;17.40;99.90;;;;;;5034798;28;19916;-81
2022/11/12 14:34:26;;;;;;;;;;;17.40;99.90;;;;;;5035910;28;19913;-85
2022/11/12 14:36:54;;;;;;;;;;;17.40;99.90;;;;;;5056990;28;20396;-78
2022/11/12 14:39:24;;;;;;;;;;;17.40;99.90;;;;;;5076129;28;19919;-80
2022/11/12 14:41:50;;;;;;;;;;;17.30;99.90;;;;;;5075111;28;19931;-80
2022/11/12 14:44:19;;;;;;;;;;;17.30;99.90;;;;;;5074185;28;20654;-82
2022/11/12 14:46:49;;;;;;;;;;;17.40;99.90;;;;;;5056435;28;19913;-83
2022/11/12 14:49:20;;;;;;;;;;;17.30;99.90;;;;;;5053834;28;19917;-85
2022/11/12 14:51:47;;;;;;;;;;;17.30;99.90;;;;;;5054115;28;19935;-84
2022/11/12 14:54:17;;;;;;;;;;;17.30;99.90;;;;;;5054296;28;19987;-84
2022/11/12 14:56:43;;;;;;;;;;;17.30;99.90;;;;;;5054061;28;19909;-83
2022/11/12 14:59:11;;;;;;;;;;;17.20;99.90;;;;;;5051292;28;20041;-85
2022/11/12 15:01:38;;;;;;;;;;;17.20;99.90;;;;;;5055766;28;19916;-84
2022/11/12 15:04:04;;;;;;;;;;;17.20;99.90;;;;;;5065850;28;19970;-84
2022/11/12 15:06:31;;;;;;;;;;;17.10;99.90;;;;;;5064962;28;20427;-85